sensor_id;sensor_type;location;lat;lon;timestamp;pressure;altitude;pressure_sealevel;temperature;humidity
28004;BME280;15330;51.234;6.754;2023-03-04T00:02:06;102053.91;;;5.24;80.41
28004;BME280;15330;51.234;6.754;2023-03-04T00:04:31;102054.50;;;5.14;80.81
28004;BME280;15330;51.234;6.754;2023-03-04T00:06:57;102052.03;;;5.11;80.98
28004;BME280;15330;51.234;6.754;2023-03-04T00:09:22;102048.53;;;5.11;80.89
28004;BME280;15330;51.234;6.754;2023-03-04T00:11:47;102051.28;;;5.09;80.90
28004;BME280;15330;51.234;6.754;2023-03-04T00:14:13;102048.44;;;5.12;80.81
28004;BME280;15330;51.234;6.754;2023-03-04T00:16:38;102054.66;;;5.26;80.29
28004;BME280;15330;51.234;6.754;2023-03-04T00:19:04;102061.44;;;5.17;80.86
28004;BME280;15330;51.234;6.754;2023-03-04T00:21:29;102059.72;;;5.16;80.53
28004;BME280;15330;51.234;6.754;2023-03-04T00:23:55;102050.59;;;5.20;80.35
28004;BME280;15330;51.234;6.754;2023-03-04T00:26:20;102054.00;;;5.22;80.95
28004;BME280;15330;51.234;6.754;2023-03-04T00:28:46;102038.41;;;5.18;80.40
28004;BME280;15330;51.234;6.754;2023-03-04T00:31:11;102048.41;;;5.27;80.76
28004;BME280;15330;51.234;6.754;2023-03-04T00:33:37;102045.19;;;5.22;80.99
28004;BME280;15330;51.234;6.754;2023-03-04T00:36:03;102049.38;;;5.26;80.49
28004;BME280;15330;51.234;6.754;2023-03-04T00:38:29;102042.00;;;5.16;81.30
28004;BME280;15330;51.234;6.754;2023-03-04T00:40:54;102042.75;;;5.19;81.03
28004;BME280;15330;51.234;6.754;2023-03-04T00:43:20;102042.94;;;5.15;80.98
28004;BME280;15330;51.234;6.754;2023-03-04T00:45:46;102038.31;;;5.19;81.10
28004;BME280;15330;51.234;6.754;2023-03-04T00:48:11;102023.34;;;5.18;80.97
28004;BME280;15330;51.234;6.754;2023-03-04T00:50:37;102032.50;;;5.27;80.87
28004;BME280;15330;51.234;6.754;2023-03-04T00:53:03;102040.56;;;5.25;81.18
28004;BME280;15330;51.234;6.754;2023-03-04T00:55:29;102034.81;;;5.19;80.81
28004;BME280;15330;51.234;6.754;2023-03-04T00:57:54;102037.16;;;5.23;81.57
28004;BME280;15330;51.234;6.754;2023-03-04T01:00:20;102031.00;;;5.23;81.34
28004;BME280;15330;51.234;6.754;2023-03-04T01:02:45;102035.69;;;5.32;81.03
28004;BME280;15330;51.234;6.754;2023-03-04T01:05:11;102031.75;;;5.25;81.39
28004;BME280;15330;51.234;6.754;2023-03-04T01:07:36;102031.41;;;5.16;81.99
28004;BME280;15330;51.234;6.754;2023-03-04T01:10:03;102026.28;;;5.13;82.08
28004;BME280;15330;51.234;6.754;2023-03-04T01:12:28;102033.81;;;5.20;81.85
28004;BME280;15330;51.234;6.754;2023-03-04T01:14:54;102024.63;;;5.25;81.80
28004;BME280;15330;51.234;6.754;2023-03-04T01:17:19;102024.53;;;5.27;81.90
28004;BME280;15330;51.234;6.754;2023-03-04T01:19:45;102024.44;;;5.28;81.41
28004;BME280;15330;51.234;6.754;2023-03-04T01:22:10;102020.09;;;5.27;82.06
28004;BME280;15330;51.234;6.754;2023-03-04T01:24:37;102015.88;;;5.37;81.38
28004;BME280;15330;51.234;6.754;2023-03-04T01:27:03;102018.66;;;5.22;81.90
28004;BME280;15330;51.234;6.754;2023-03-04T01:29:28;102021.13;;;5.25;81.92
28004;BME280;15330;51.234;6.754;2023-03-04T01:31:54;102017.88;;;5.34;82.28
28004;BME280;15330;51.234;6.754;2023-03-04T01:34:19;102008.81;;;5.24;81.97
28004;BME280;15330;51.234;6.754;2023-03-04T01:36:44;102010.44;;;5.26;82.21
28004;BME280;15330;51.234;6.754;2023-03-04T01:39:10;102008.63;;;5.27;81.98
28004;BME280;15330;51.234;6.754;2023-03-04T01:41:35;102013.63;;;5.31;81.98
28004;BME280;15330;51.234;6.754;2023-03-04T01:44:01;102004.97;;;5.15;82.54
28004;BME280;15330;51.234;6.754;2023-03-04T01:46:27;102011.22;;;5.14;82.75
28004;BME280;15330;51.234;6.754;2023-03-04T01:48:53;102006.91;;;5.26;82.43
28004;BME280;15330;51.234;6.754;2023-03-04T01:51:19;101999.63;;;5.29;81.76
28004;BME280;15330;51.234;6.754;2023-03-04T01:53:47;102012.56;;;5.34;81.74
28004;BME280;15330;51.234;6.754;2023-03-04T01:56:28;102004.94;;;5.29;82.12
28004;BME280;15330;51.234;6.754;2023-03-04T01:59:23;101991.78;;;5.13;82.44
28004;BME280;15330;51.234;6.754;2023-03-04T02:01:51;102000.09;;;5.22;82.82
28004;BME280;15330;51.234;6.754;2023-03-04T02:04:19;101999.81;;;5.26;81.88
28004;BME280;15330;51.234;6.754;2023-03-04T02:06:46;101986.75;;;5.23;82.32
28004;BME280;15330;51.234;6.754;2023-03-04T02:09:14;101992.56;;;5.15;82.82
28004;BME280;15330;51.234;6.754;2023-03-04T02:11:39;101995.88;;;5.19;82.64
28004;BME280;15330;51.234;6.754;2023-03-04T02:14:06;101985.53;;;5.14;82.69
28004;BME280;15330;51.234;6.754;2023-03-04T02:16:32;101985.25;;;5.19;82.79
28004;BME280;15330;51.234;6.754;2023-03-04T02:18:57;101995.75;;;5.21;82.75
28004;BME280;15330;51.234;6.754;2023-03-04T02:21:28;101983.44;;;5.20;82.90
28004;BME280;15330;51.234;6.754;2023-03-04T02:26:35;101980.66;;;5.08;83.87
28004;BME280;15330;51.234;6.754;2023-03-04T02:29:02;101982.69;;;5.18;83.60
28004;BME280;15330;51.234;6.754;2023-03-04T02:31:37;101976.84;;;5.12;83.22
28004;BME280;15330;51.234;6.754;2023-03-04T02:34:28;101980.94;;;5.04;83.67
28004;BME280;15330;51.234;6.754;2023-03-04T02:36:55;101974.59;;;5.06;83.84
28004;BME280;15330;51.234;6.754;2023-03-04T02:39:27;101980.84;;;5.05;84.08
28004;BME280;15330;51.234;6.754;2023-03-04T02:41:55;101980.66;;;5.08;83.54
28004;BME280;15330;51.234;6.754;2023-03-04T02:44:23;101974.94;;;5.14;83.78
28004;BME280;15330;51.234;6.754;2023-03-04T02:46:50;101972.28;;;5.14;83.54
28004;BME280;15330;51.234;6.754;2023-03-04T02:49:16;101965.19;;;5.15;83.83
28004;BME280;15330;51.234;6.754;2023-03-04T02:51:42;101969.91;;;5.10;83.81
28004;BME280;15330;51.234;6.754;2023-03-04T02:54:15;101966.53;;;5.08;83.84
28004;BME280;15330;51.234;6.754;2023-03-04T02:56:45;101962.91;;;5.09;83.83
28004;BME280;15330;51.234;6.754;2023-03-04T02:59:11;101963.75;;;5.09;83.32
28004;BME280;15330;51.234;6.754;2023-03-04T03:01:37;101953.72;;;5.14;83.58
28004;BME280;15330;51.234;6.754;2023-03-04T03:04:02;101953.63;;;5.16;83.41
28004;BME280;15330;51.234;6.754;2023-03-04T03:06:27;101952.09;;;5.12;84.22
28004;BME280;15330;51.234;6.754;2023-03-04T03:08:53;101955.06;;;5.07;84.38
28004;BME280;15330;51.234;6.754;2023-03-04T03:11:18;101962.91;;;5.09;84.52
28004;BME280;15330;51.234;6.754;2023-03-04T03:13:43;101954.25;;;5.20;84.35
28004;BME280;15330;51.234;6.754;2023-03-04T03:16:09;101961.44;;;5.05;84.58
28004;BME280;15330;51.234;6.754;2023-03-04T03:18:34;101943.91;;;5.02;84.48
28004;BME280;15330;51.234;6.754;2023-03-04T03:20:59;101951.25;;;5.11;84.56
28004;BME280;15330;51.234;6.754;2023-03-04T03:23:25;101950.63;;;5.08;84.71
28004;BME280;15330;51.234;6.754;2023-03-04T03:25:50;101947.66;;;5.12;84.36
28004;BME280;15330;51.234;6.754;2023-03-04T03:28:15;101951.78;;;4.90;84.74
28004;BME280;15330;51.234;6.754;2023-03-04T03:30:41;101947.31;;;5.04;84.48
28004;BME280;15330;51.234;6.754;2023-03-04T03:33:06;101939.44;;;5.03;84.63
28004;BME280;15330;51.234;6.754;2023-03-04T03:35:32;101948.59;;;5.11;84.33
28004;BME280;15330;51.234;6.754;2023-03-04T03:37:57;101945.44;;;4.92;84.73
28004;BME280;15330;51.234;6.754;2023-03-04T03:40:22;101943.16;;;5.00;85.00
28004;BME280;15330;51.234;6.754;2023-03-04T03:42:48;101942.41;;;4.98;85.40
28004;BME280;15330;51.234;6.754;2023-03-04T03:45:13;101942.00;;;5.04;85.14
28004;BME280;15330;51.234;6.754;2023-03-04T03:47:39;101945.41;;;5.06;85.54
28004;BME280;15330;51.234;6.754;2023-03-04T03:50:05;101940.81;;;4.96;85.19
28004;BME280;15330;51.234;6.754;2023-03-04T03:52:31;101938.44;;;4.91;84.71
28004;BME280;15330;51.234;6.754;2023-03-04T03:54:56;101938.06;;;4.97;84.50
28004;BME280;15330;51.234;6.754;2023-03-04T03:57:21;101933.16;;;4.91;84.45
28004;BME280;15330;51.234;6.754;2023-03-04T03:59:47;101930.69;;;4.88;83.84
28004;BME280;15330;51.234;6.754;2023-03-04T04:02:12;101932.19;;;4.92;84.13
28004;BME280;15330;51.234;6.754;2023-03-04T04:04:38;101937.84;;;5.00;83.42
28004;BME280;15330;51.234;6.754;2023-03-04T04:07:03;101933.38;;;5.01;83.79
28004;BME280;15330;51.234;6.754;2023-03-04T04:09:28;101936.47;;;4.95;84.47
28004;BME280;15330;51.234;6.754;2023-03-04T04:11:54;101942.19;;;5.01;84.33
28004;BME280;15330;51.234;6.754;2023-03-04T04:14:19;101938.59;;;5.02;84.63
28004;BME280;15330;51.234;6.754;2023-03-04T04:16:44;101941.59;;;5.10;84.59
28004;BME280;15330;51.234;6.754;2023-03-04T04:19:18;101932.78;;;5.10;84.18
28004;BME280;15330;51.234;6.754;2023-03-04T04:21:44;101927.03;;;5.03;84.17
28004;BME280;15330;51.234;6.754;2023-03-04T04:24:09;101931.84;;;5.11;84.63
28004;BME280;15330;51.234;6.754;2023-03-04T04:26:35;101929.50;;;5.06;84.27
28004;BME280;15330;51.234;6.754;2023-03-04T04:29:00;101932.69;;;5.11;85.01
28004;BME280;15330;51.234;6.754;2023-03-04T04:31:26;101934.31;;;5.14;84.69
28004;BME280;15330;51.234;6.754;2023-03-04T04:33:51;101924.63;;;5.13;84.79
28004;BME280;15330;51.234;6.754;2023-03-04T04:36:16;101935.34;;;5.11;84.56
28004;BME280;15330;51.234;6.754;2023-03-04T04:38:42;101927.72;;;5.07;84.75
28004;BME280;15330;51.234;6.754;2023-03-04T04:41:35;101939.09;;;5.22;84.28
28004;BME280;15330;51.234;6.754;2023-03-04T04:44:01;101931.47;;;5.17;84.48
28004;BME280;15330;51.234;6.754;2023-03-04T04:46:26;101937.91;;;5.13;84.89
28004;BME280;15330;51.234;6.754;2023-03-04T04:48:51;101938.84;;;5.12;84.89
28004;BME280;15330;51.234;6.754;2023-03-04T04:51:17;101942.00;;;5.04;85.07
28004;BME280;15330;51.234;6.754;2023-03-04T04:53:42;101941.44;;;4.99;85.50
28004;BME280;15330;51.234;6.754;2023-03-04T04:56:14;101938.78;;;4.99;85.61
28004;BME280;15330;51.234;6.754;2023-03-04T04:58:40;101945.75;;;5.14;85.10
28004;BME280;15330;51.234;6.754;2023-03-04T05:01:06;101941.91;;;5.06;85.83
28004;BME280;15330;51.234;6.754;2023-03-04T05:03:33;101943.47;;;4.96;86.05
28004;BME280;15330;51.234;6.754;2023-03-04T05:05:59;101943.66;;;4.93;86.41
28004;BME280;15330;51.234;6.754;2023-03-04T05:08:24;101948.91;;;5.07;86.09
28004;BME280;15330;51.234;6.754;2023-03-04T05:10:51;101945.84;;;5.13;85.65
28004;BME280;15330;51.234;6.754;2023-03-04T05:13:16;101942.06;;;5.57;85.65
28004;BME280;15330;51.234;6.754;2023-03-04T05:15:44;101938.81;;;5.78;84.76
28004;BME280;15330;51.234;6.754;2023-03-04T05:18:09;101943.00;;;5.56;84.32
28004;BME280;15330;51.234;6.754;2023-03-04T05:20:37;101940.91;;;5.73;84.05
28004;BME280;15330;51.234;6.754;2023-03-04T05:23:02;101939.41;;;5.57;83.39
28004;BME280;15330;51.234;6.754;2023-03-04T05:25:28;101943.47;;;5.75;83.34
28004;BME280;15330;51.234;6.754;2023-03-04T05:27:53;101938.97;;;5.50;84.19
28004;BME280;15330;51.234;6.754;2023-03-04T05:30:19;101922.41;;;5.07;84.20
28004;BME280;15330;51.234;6.754;2023-03-04T05:32:44;101944.47;;;5.07;84.64
28004;BME280;15330;51.234;6.754;2023-03-04T05:35:10;101943.38;;;4.97;84.53
28004;BME280;15330;51.234;6.754;2023-03-04T05:37:35;101942.16;;;5.15;83.80
28004;BME280;15330;51.234;6.754;2023-03-04T05:40:00;101948.19;;;4.91;84.90
28004;BME280;15330;51.234;6.754;2023-03-04T05:42:26;101945.91;;;4.99;84.91
28004;BME280;15330;51.234;6.754;2023-03-04T05:44:51;101945.34;;;4.94;85.03
28004;BME280;15330;51.234;6.754;2023-03-04T05:47:17;101949.97;;;5.04;85.34
28004;BME280;15330;51.234;6.754;2023-03-04T05:49:42;101951.47;;;5.08;85.01
28004;BME280;15330;51.234;6.754;2023-03-04T05:52:09;101947.75;;;5.11;85.16
28004;BME280;15330;51.234;6.754;2023-03-04T05:54:34;101949.13;;;5.04;85.69
28004;BME280;15330;51.234;6.754;2023-03-04T05:59:45;101944.09;;;4.99;86.33
28004;BME280;15330;51.234;6.754;2023-03-04T06:02:10;101950.91;;;5.03;86.51
28004;BME280;15330;51.234;6.754;2023-03-04T06:04:36;101949.78;;;5.07;87.22
28004;BME280;15330;51.234;6.754;2023-03-04T06:07:01;101951.84;;;5.02;86.74
28004;BME280;15330;51.234;6.754;2023-03-04T06:09:27;101958.16;;;5.14;86.01
28004;BME280;15330;51.234;6.754;2023-03-04T06:11:52;101957.41;;;5.12;86.45
28004;BME280;15330;51.234;6.754;2023-03-04T06:14:17;101957.47;;;5.25;86.04
28004;BME280;15330;51.234;6.754;2023-03-04T06:16:43;101950.31;;;5.12;86.75
28004;BME280;15330;51.234;6.754;2023-03-04T06:19:08;101960.53;;;5.19;86.92
28004;BME280;15330;51.234;6.754;2023-03-04T06:21:34;101964.22;;;5.16;86.82
28004;BME280;15330;51.234;6.754;2023-03-04T06:23:59;101958.47;;;5.09;86.51
28004;BME280;15330;51.234;6.754;2023-03-04T06:26:24;101968.06;;;5.25;86.00
28004;BME280;15330;51.234;6.754;2023-03-04T06:28:50;101965.97;;;5.30;86.16
28004;BME280;15330;51.234;6.754;2023-03-04T06:31:15;101964.41;;;5.13;86.55
28004;BME280;15330;51.234;6.754;2023-03-04T06:33:41;101965.84;;;5.19;85.76
28004;BME280;15330;51.234;6.754;2023-03-04T06:36:06;101970.38;;;5.16;86.12
28004;BME280;15330;51.234;6.754;2023-03-04T06:38:32;101969.38;;;5.05;86.01
28004;BME280;15330;51.234;6.754;2023-03-04T06:41:05;101970.13;;;5.07;85.98
28004;BME280;15330;51.234;6.754;2023-03-04T06:43:31;101974.59;;;5.06;86.31
28004;BME280;15330;51.234;6.754;2023-03-04T06:45:57;101980.69;;;5.21;86.15
28004;BME280;15330;51.234;6.754;2023-03-04T06:48:22;101981.97;;;5.55;86.35
28004;BME280;15330;51.234;6.754;2023-03-04T06:50:47;101980.31;;;5.67;84.92
28004;BME280;15330;51.234;6.754;2023-03-04T06:53:13;101987.50;;;5.92;84.33
28004;BME280;15330;51.234;6.754;2023-03-04T06:55:38;101978.69;;;6.16;84.10
28004;BME280;15330;51.234;6.754;2023-03-04T06:58:03;101985.50;;;6.08;83.17
28004;BME280;15330;51.234;6.754;2023-03-04T07:00:29;101985.41;;;6.22;82.04
28004;BME280;15330;51.234;6.754;2023-03-04T07:02:54;101988.16;;;6.33;82.60
28004;BME280;15330;51.234;6.754;2023-03-04T07:05:20;101982.50;;;6.25;81.92
28004;BME280;15330;51.234;6.754;2023-03-04T07:07:45;101982.50;;;6.25;83.00
28004;BME280;15330;51.234;6.754;2023-03-04T07:10:11;101987.91;;;6.36;81.66
28004;BME280;15330;51.234;6.754;2023-03-04T07:12:36;101983.97;;;6.54;81.68
28004;BME280;15330;51.234;6.754;2023-03-04T07:15:02;101985.91;;;6.52;81.58
28004;BME280;15330;51.234;6.754;2023-03-04T07:17:27;101986.31;;;6.46;81.20
28004;BME280;15330;51.234;6.754;2023-03-04T07:19:53;102001.22;;;6.11;82.70
28004;BME280;15330;51.234;6.754;2023-03-04T07:22:18;101992.59;;;6.45;82.12
28004;BME280;15330;51.234;6.754;2023-03-04T07:24:43;101994.53;;;6.43;81.91
28004;BME280;15330;51.234;6.754;2023-03-04T07:27:09;101990.72;;;6.22;81.88
28004;BME280;15330;51.234;6.754;2023-03-04T07:29:34;101992.38;;;6.36;82.24
28004;BME280;15330;51.234;6.754;2023-03-04T07:32:00;102002.06;;;6.24;81.36
28004;BME280;15330;51.234;6.754;2023-03-04T07:34:25;102011.50;;;5.63;83.82
28004;BME280;15330;51.234;6.754;2023-03-04T07:36:51;102009.13;;;5.85;84.34
28004;BME280;15330;51.234;6.754;2023-03-04T07:39:17;102008.59;;;5.53;85.59
28004;BME280;15330;51.234;6.754;2023-03-04T07:41:42;102005.88;;;5.28;87.29
28004;BME280;15330;51.234;6.754;2023-03-04T07:44:10;102015.28;;;5.46;86.89
28004;BME280;15330;51.234;6.754;2023-03-04T07:46:36;102014.38;;;5.33;88.22
28004;BME280;15330;51.234;6.754;2023-03-04T07:49:02;102020.13;;;5.40;88.00
28004;BME280;15330;51.234;6.754;2023-03-04T07:51:28;102016.59;;;5.27;89.39
28004;BME280;15330;51.234;6.754;2023-03-04T07:53:56;102014.97;;;5.51;88.42
28004;BME280;15330;51.234;6.754;2023-03-04T07:56:24;102017.97;;;5.59;87.92
28004;BME280;15330;51.234;6.754;2023-03-04T07:58:50;102015.19;;;5.61;87.75
28004;BME280;15330;51.234;6.754;2023-03-04T08:01:27;102019.56;;;5.62;87.35
28004;BME280;15330;51.234;6.754;2023-03-04T08:03:53;102024.56;;;5.66;88.08
28004;BME280;15330;51.234;6.754;2023-03-04T08:06:19;102021.28;;;5.89;87.83
28004;BME280;15330;51.234;6.754;2023-03-04T08:08:46;102015.97;;;6.15;86.65
28004;BME280;15330;51.234;6.754;2023-03-04T08:11:14;102020.56;;;6.25;87.02
28004;BME280;15330;51.234;6.754;2023-03-04T08:13:41;102017.53;;;5.92;87.07
28004;BME280;15330;51.234;6.754;2023-03-04T08:16:07;102024.00;;;5.61;88.51
28004;BME280;15330;51.234;6.754;2023-03-04T08:18:32;102021.34;;;5.48;89.68
28004;BME280;15330;51.234;6.754;2023-03-04T08:20:58;102029.13;;;5.64;89.80
28004;BME280;15330;51.234;6.754;2023-03-04T08:23:24;102017.66;;;5.91;88.67
28004;BME280;15330;51.234;6.754;2023-03-04T08:25:49;102014.41;;;6.12;88.62
28004;BME280;15330;51.234;6.754;2023-03-04T08:28:16;102015.13;;;6.14;88.36
28004;BME280;15330;51.234;6.754;2023-03-04T08:30:41;102015.22;;;6.13;88.47
28004;BME280;15330;51.234;6.754;2023-03-04T08:33:07;102013.66;;;6.36;87.96
28004;BME280;15330;51.234;6.754;2023-03-04T08:35:37;102026.25;;;6.95;86.41
28004;BME280;15330;51.234;6.754;2023-03-04T08:38:03;102024.13;;;6.75;86.51
28004;BME280;15330;51.234;6.754;2023-03-04T08:40:29;102028.75;;;7.10;85.20
28004;BME280;15330;51.234;6.754;2023-03-04T08:42:55;102027.53;;;6.77;86.65
28004;BME280;15330;51.234;6.754;2023-03-04T08:45:20;102010.34;;;6.57;88.24
28004;BME280;15330;51.234;6.754;2023-03-04T08:47:46;102018.97;;;6.48;89.12
28004;BME280;15330;51.234;6.754;2023-03-04T08:50:11;102021.09;;;6.43;89.19
28004;BME280;15330;51.234;6.754;2023-03-04T08:52:36;102021.06;;;6.56;88.87
28004;BME280;15330;51.234;6.754;2023-03-04T08:55:02;102017.25;;;6.60;87.56
28004;BME280;15330;51.234;6.754;2023-03-04T08:57:27;102012.78;;;6.73;86.48
28004;BME280;15330;51.234;6.754;2023-03-04T08:59:53;102017.59;;;7.28;84.30
28004;BME280;15330;51.234;6.754;2023-03-04T09:02:19;102019.00;;;7.58;82.32
28004;BME280;15330;51.234;6.754;2023-03-04T09:04:44;102012.69;;;7.35;82.42
28004;BME280;15330;51.234;6.754;2023-03-04T09:07:10;102012.63;;;7.24;82.05
28004;BME280;15330;51.234;6.754;2023-03-04T09:09:35;102010.63;;;6.78;83.34
28004;BME280;15330;51.234;6.754;2023-03-04T09:12:01;102009.66;;;6.92;83.50
28004;BME280;15330;51.234;6.754;2023-03-04T09:14:26;102020.38;;;7.03;83.35
28004;BME280;15330;51.234;6.754;2023-03-04T09:16:52;102014.22;;;6.90;83.59
28004;BME280;15330;51.234;6.754;2023-03-04T09:19:17;102014.78;;;6.70;84.32
28004;BME280;15330;51.234;6.754;2023-03-04T09:21:43;102017.44;;;6.70;85.11
28004;BME280;15330;51.234;6.754;2023-03-04T09:24:08;102013.34;;;6.53;85.19
28004;BME280;15330;51.234;6.754;2023-03-04T09:26:33;102026.41;;;6.18;86.62
28004;BME280;15330;51.234;6.754;2023-03-04T09:29:00;102017.38;;;6.20;87.16
28004;BME280;15330;51.234;6.754;2023-03-04T09:31:26;102009.28;;;6.09;87.54
28004;BME280;15330;51.234;6.754;2023-03-04T09:33:53;102017.13;;;6.74;86.07
28004;BME280;15330;51.234;6.754;2023-03-04T09:36:19;102014.38;;;8.63;76.62
28004;BME280;15330;51.234;6.754;2023-03-04T09:38:45;102018.06;;;7.22;82.44
28004;BME280;15330;51.234;6.754;2023-03-04T09:41:44;102017.56;;;6.55;85.87
28004;BME280;15330;51.234;6.754;2023-03-04T09:46:40;102016.81;;;6.66;87.60
28004;BME280;15330;51.234;6.754;2023-03-04T09:49:10;102008.97;;;6.39;88.26
28004;BME280;15330;51.234;6.754;2023-03-04T10:05:40;102006.72;;;6.71;86.49
28004;BME280;15330;51.234;6.754;2023-03-04T10:11:01;102003.97;;;6.96;85.87
28004;BME280;15330;51.234;6.754;2023-03-04T10:13:49;101993.53;;;7.06;85.96
28004;BME280;15330;51.234;6.754;2023-03-04T10:16:21;102000.41;;;7.21;85.13
28004;BME280;15330;51.234;6.754;2023-03-04T10:21:49;101983.63;;;9.77;74.69
28004;BME280;15330;51.234;6.754;2023-03-04T10:24:18;101978.22;;;9.88;73.66
28004;BME280;15330;51.234;6.754;2023-03-04T10:26:47;101978.34;;;15.81;50.07
28004;BME280;15330;51.234;6.754;2023-03-04T10:29:18;101982.22;;;11.25;66.06
28004;BME280;15330;51.234;6.754;2023-03-04T10:31:44;101983.25;;;9.61;71.35
28004;BME280;15330;51.234;6.754;2023-03-04T10:34:15;101974.97;;;9.64;72.28
28004;BME280;15330;51.234;6.754;2023-03-04T10:39:26;101976.34;;;9.15;73.31
28004;BME280;15330;51.234;6.754;2023-03-04T10:44:29;101976.13;;;7.96;78.50
28004;BME280;15330;51.234;6.754;2023-03-04T10:46:56;101973.09;;;8.11;78.24
28004;BME280;15330;51.234;6.754;2023-03-04T10:49:23;101974.94;;;7.65;79.96
28004;BME280;15330;51.234;6.754;2023-03-04T10:52:02;101969.94;;;7.95;79.72
28004;BME280;15330;51.234;6.754;2023-03-04T10:54:45;101966.44;;;8.06;78.84
28004;BME280;15330;51.234;6.754;2023-03-04T10:57:16;101970.56;;;7.99;79.43
28004;BME280;15330;51.234;6.754;2023-03-04T11:02:30;101979.91;;;7.34;81.12
28004;BME280;15330;51.234;6.754;2023-03-04T11:08:00;101971.69;;;7.14;82.89
28004;BME280;15330;51.234;6.754;2023-03-04T11:13:08;101958.84;;;8.91;76.88
28004;BME280;15330;51.234;6.754;2023-03-04T11:21:05;101953.38;;;8.92;75.58
28004;BME280;15330;51.234;6.754;2023-03-04T11:23:38;101948.31;;;9.74;73.09
28004;BME280;15330;51.234;6.754;2023-03-04T11:26:18;101949.78;;;11.96;63.41
28004;BME280;15330;51.234;6.754;2023-03-04T11:28:52;101943.88;;;9.42;72.25
28004;BME280;15330;51.234;6.754;2023-03-04T11:31:29;101944.50;;;9.03;74.08
28004;BME280;15330;51.234;6.754;2023-03-04T11:34:02;101944.56;;;8.69;76.05
28004;BME280;15330;51.234;6.754;2023-03-04T11:36:53;101940.91;;;8.26;77.11
28004;BME280;15330;51.234;6.754;2023-03-04T11:39:27;101947.09;;;8.26;77.84
28004;BME280;15330;51.234;6.754;2023-03-04T11:44:52;101933.88;;;8.14;78.83
28004;BME280;15330;51.234;6.754;2023-03-04T11:48:07;101933.41;;;8.08;78.94
28004;BME280;15330;51.234;6.754;2023-03-04T11:50:42;101930.22;;;8.03;79.50
28004;BME280;15330;51.234;6.754;2023-03-04T11:53:36;101922.84;;;8.18;79.04
28004;BME280;15330;51.234;6.754;2023-03-04T12:07:27;101906.88;;;8.18;78.70
28004;BME280;15330;51.234;6.754;2023-03-04T12:15:01;101899.69;;;7.85;80.13
28004;BME280;15330;51.234;6.754;2023-03-04T12:29:14;101873.66;;;8.44;78.49
28004;BME280;15330;51.234;6.754;2023-03-04T12:31:38;101876.09;;;8.36;79.17
28004;BME280;15330;51.234;6.754;2023-03-04T12:37:10;101872.59;;;8.36;79.58
28004;BME280;15330;51.234;6.754;2023-03-04T12:39:55;101866.66;;;8.32;79.92
28004;BME280;15330;51.234;6.754;2023-03-04T12:45:52;101861.38;;;8.64;78.40
28004;BME280;15330;51.234;6.754;2023-03-04T12:48:58;101855.84;;;8.45;78.69
28004;BME280;15330;51.234;6.754;2023-03-04T12:56:59;101850.63;;;8.10;81.26
28004;BME280;15330;51.234;6.754;2023-03-04T12:59:35;101851.25;;;8.14;81.25
28004;BME280;15330;51.234;6.754;2023-03-04T13:10:19;101848.34;;;7.94;80.85
28004;BME280;15330;51.234;6.754;2023-03-04T13:12:51;101839.16;;;7.87;81.69
28004;BME280;15330;51.234;6.754;2023-03-04T13:15:27;101834.66;;;7.65;83.15
28004;BME280;15330;51.234;6.754;2023-03-04T13:17:55;101845.06;;;7.68;83.48
28004;BME280;15330;51.234;6.754;2023-03-04T13:20:23;101845.44;;;7.75;82.85
28004;BME280;15330;51.234;6.754;2023-03-04T13:23:00;101837.56;;;7.85;82.84
28004;BME280;15330;51.234;6.754;2023-03-04T13:28:30;101830.06;;;7.79;82.88
28004;BME280;15330;51.234;6.754;2023-03-04T13:43:44;101823.53;;;7.83;88.80
28004;BME280;15330;51.234;6.754;2023-03-04T13:51:24;101819.16;;;8.15;85.60
28004;BME280;15330;51.234;6.754;2023-03-04T13:56:38;101809.13;;;7.85;86.05
28004;BME280;15330;51.234;6.754;2023-03-04T14:01:51;101805.38;;;7.99;85.76
28004;BME280;15330;51.234;6.754;2023-03-04T14:04:35;101803.53;;;7.99;85.64
28004;BME280;15330;51.234;6.754;2023-03-04T14:07:15;101796.63;;;8.08;85.43
28004;BME280;15330;51.234;6.754;2023-03-04T14:10:00;101786.72;;;7.77;86.67
28004;BME280;15330;51.234;6.754;2023-03-04T14:12:28;101787.69;;;7.76;86.51
28004;BME280;15330;51.234;6.754;2023-03-04T14:15:00;101795.06;;;7.72;86.83
28004;BME280;15330;51.234;6.754;2023-03-04T14:17:30;101783.22;;;7.76;86.97
28004;BME280;15330;51.234;6.754;2023-03-04T14:19:58;101784.88;;;7.99;85.88
28004;BME280;15330;51.234;6.754;2023-03-04T14:22:27;101789.00;;;7.92;85.87
28004;BME280;15330;51.234;6.754;2023-03-04T14:27:38;101791.56;;;7.94;86.39
28004;BME280;15330;51.234;6.754;2023-03-04T14:30:22;101788.44;;;7.66;87.33
28004;BME280;15330;51.234;6.754;2023-03-04T14:32:51;101775.56;;;7.71;87.57
28004;BME280;15330;51.234;6.754;2023-03-04T14:35:26;101776.06;;;7.77;87.92
28004;BME280;15330;51.234;6.754;2023-03-04T14:38:02;101776.19;;;7.86;88.04
28004;BME280;15330;51.234;6.754;2023-03-04T14:40:41;101771.44;;;8.01;87.44
28004;BME280;15330;51.234;6.754;2023-03-04T14:43:19;101767.34;;;7.97;87.67
28004;BME280;15330;51.234;6.754;2023-03-04T14:45:52;101761.50;;;8.03;86.82
28004;BME280;15330;51.234;6.754;2023-03-04T14:48:30;101755.56;;;7.99;87.64
28004;BME280;15330;51.234;6.754;2023-03-04T14:51:00;101762.00;;;8.08;88.54
28004;BME280;15330;51.234;6.754;2023-03-04T14:53:31;101746.69;;;8.21;87.74
28004;BME280;15330;51.234;6.754;2023-03-04T14:56:06;101752.53;;;8.15;88.25
28004;BME280;15330;51.234;6.754;2023-03-04T14:58:34;101752.03;;;8.10;89.09
28004;BME280;15330;51.234;6.754;2023-03-04T15:01:19;101749.03;;;7.92;90.81
28004;BME280;15330;51.234;6.754;2023-03-04T15:03:55;101743.81;;;8.02;89.74
28004;BME280;15330;51.234;6.754;2023-03-04T15:06:24;101739.13;;;7.83;90.22
28004;BME280;15330;51.234;6.754;2023-03-04T15:08:59;101738.06;;;7.86;90.27
28004;BME280;15330;51.234;6.754;2023-03-04T15:11:29;101735.75;;;7.70;90.69
28004;BME280;15330;51.234;6.754;2023-03-04T15:13:57;101733.34;;;7.78;91.12